Time;durP1;ratioP1;P1;durP2;ratioP2;P2;SDS_P1;SDS_P2;PMS_P1;PMS_P2;Temp;Humidity;BMP_temperature;BMP_pressure;BME280_temperature;BME280_humidity;BME280_pressure;Samples;Min_cycle;Max_cycle;Signal;HPM_P1;HPM_P2
2021/12/30 00:04:22;;;;;;;19.40;10.80;;;24.00;51.10;;;;;;221583;1313;22419;-62
2021/12/30 00:09:33;;;;;;;18.00;11.00;;;23.90;51.10;;;;;;221635;1319;22669;-62
2021/12/30 00:14:54;;;;;;;18.50;10.40;;;23.80;51.40;;;;;;221638;1318;23129;-62
2021/12/30 00:20:03;;;;;;;18.70;10.80;;;23.60;52.10;;;;;;221762;1318;22537;-62
2021/12/30 00:25:07;;;;;;;17.90;11.40;;;23.50;51.60;;;;;;221552;1317;22398;-62
2021/12/30 00:30:19;;;;;;;16.30;10.70;;;23.40;51.80;;;;;;221670;1317;22491;-62
2021/12/30 00:35:28;;;;;;;16.00;10.10;;;23.30;51.90;;;;;;221614;1318;22854;-62
2021/12/30 00:40:33;;;;;;;18.50;11.00;;;23.20;52.10;;;;;;221366;1318;22432;-62
2021/12/30 00:45:48;;;;;;;20.50;10.90;;;23.10;52.30;;;;;;221248;1319;23034;-61
2021/12/30 00:50:58;;;;;;;17.80;10.70;;;23.00;52.30;;;;;;221387;1319;22253;-62
2021/12/30 00:56:07;;;;;;;18.20;10.50;;;22.90;52.50;;;;;;221651;1317;22466;-62
2021/12/30 01:01:30;;;;;;;17.40;10.90;;;22.80;52.50;;;;;;221090;1317;22471;-62
2021/12/30 01:06:35;;;;;;;16.30;10.70;;;22.80;52.40;;;;;;221384;1318;293972;-62
2021/12/30 01:11:41;;;;;;;15.70;10.00;;;22.80;52.40;;;;;;221645;1317;22401;-62
2021/12/30 01:16:52;;;;;;;16.70;10.30;;;22.70;52.20;;;;;;221622;1317;23544;-62
2021/12/30 01:21:57;;;;;;;14.50;10.00;;;22.70;52.20;;;;;;221441;1318;22395;-61
2021/12/30 01:27:03;;;;;;;18.00;11.20;;;22.60;52.30;;;;;;221695;1317;23171;-61
2021/12/30 01:32:09;;;;;;;19.50;10.90;;;22.60;52.30;;;;;;221418;1318;22436;-62
2021/12/30 01:37:20;;;;;;;17.90;10.70;;;22.50;52.40;;;;;;221552;1318;23555;-62
2021/12/30 01:42:29;;;;;;;15.10;9.60;;;22.50;52.40;;;;;;221598;1318;22621;-62
2021/12/30 01:47:34;;;;;;;16.90;10.00;;;22.70;52.50;;;;;;221651;1318;22417;-62
2021/12/30 01:52:45;;;;;;;17.50;9.90;;;23.10;51.30;;;;;;221414;1318;22432;-62
2021/12/30 01:57:50;;;;;;;15.00;9.30;;;23.30;50.90;;;;;;221510;1312;22422;-62
2021/12/30 02:03:00;;;;;;;17.00;10.10;;;23.40;50.30;;;;;;221533;1318;22272;-62
2021/12/30 02:08:06;;;;;;;18.40;10.60;;;23.50;50.00;;;;;;221793;1317;22477;-62
2021/12/30 02:13:17;;;;;;;14.90;9.40;;;23.60;49.80;;;;;;221780;1317;22930;-62
2021/12/30 02:18:23;;;;;;;15.60;10.10;;;23.60;49.70;;;;;;221233;1319;22386;-62
2021/12/30 02:23:30;;;;;;;14.80;9.30;;;23.70;49.50;;;;;;221570;1318;22415;-62
2021/12/30 02:28:36;;;;;;;17.10;9.30;;;23.70;49.40;;;;;;221533;1314;22297;-62
2021/12/30 02:33:55;;;;;;;15.50;10.00;;;23.70;49.40;;;;;;221415;1319;23322;-62
2021/12/30 02:39:05;;;;;;;15.80;9.80;;;23.70;49.30;;;;;;221330;1318;23105;-62
2021/12/30 02:44:09;;;;;;;15.50;9.40;;;23.80;49.10;;;;;;221278;1318;22300;-62
2021/12/30 02:49:13;;;;;;;15.90;9.60;;;23.80;49.00;;;;;;221388;1318;22425;-62
2021/12/30 02:54:16;;;;;;;15.80;9.50;;;23.80;49.10;;;;;;221534;1318;22418;-62
2021/12/30 02:59:20;;;;;;;16.40;10.20;;;23.80;49.00;;;;;;221318;1318;22939;-62
2021/12/30 03:04:25;;;;;;;15.10;9.50;;;23.80;48.90;;;;;;221592;1315;22444;-62
2021/12/30 03:09:28;;;;;;;15.10;9.90;;;23.80;49.00;;;;;;221709;1317;22394;-62
2021/12/30 03:14:31;;;;;;;15.10;9.50;;;23.80;48.90;;;;;;221645;1318;22412;-62
2021/12/30 03:19:35;;;;;;;14.60;9.30;;;23.80;48.80;;;;;;221546;1318;22391;-62
2021/12/30 03:24:39;;;;;;;13.50;8.40;;;23.80;48.80;;;;;;221644;1317;22531;-62
2021/12/30 03:29:42;;;;;;;14.00;9.00;;;23.80;48.70;;;;;;221261;1319;22417;-62
2021/12/30 03:34:45;;;;;;;15.90;9.40;;;23.90;48.90;;;;;;221645;1317;22490;-62
2021/12/30 03:39:49;;;;;;;14.70;8.90;;;23.80;48.60;;;;;;221631;1317;23078;-62
2021/12/30 03:44:56;;;;;;;14.60;9.00;;;23.80;48.80;;;;;;221790;1317;22515;-62
2021/12/30 03:50:00;;;;;;;12.50;7.90;;;23.80;48.60;;;;;;221614;1318;22319;-62
2021/12/30 03:55:04;;;;;;;14.30;8.40;;;23.80;48.70;;;;;;221392;1312;23144;-61
2021/12/30 04:00:09;;;;;;;11.90;8.00;;;23.80;48.70;;;;;;221854;1314;22504;-61
2021/12/30 04:05:12;;;;;;;12.40;8.60;;;23.80;48.60;;;;;;221582;1312;22305;-61
2021/12/30 04:10:19;;;;;;;14.20;8.90;;;23.80;48.70;;;;;;221514;1319;22491;-61
2021/12/30 04:15:22;;;;;;;13.20;8.30;;;23.70;48.40;;;;;;221475;1318;22353;-62
2021/12/30 04:20:26;;;;;;;11.40;7.80;;;23.80;48.40;;;;;;221739;1318;22571;-62
2021/12/30 04:25:29;;;;;;;11.20;7.90;;;23.90;48.40;;;;;;221886;1318;22401;-62
2021/12/30 04:30:33;;;;;;;12.70;8.20;;;23.90;48.20;;;;;;221773;1313;22440;-62
2021/12/30 04:35:36;;;;;;;13.50;8.40;;;23.90;48.10;;;;;;221806;1318;22404;-62
2021/12/30 04:40:40;;;;;;;11.70;7.40;;;23.90;48.10;;;;;;221564;1318;22221;-62
2021/12/30 04:45:45;;;;;;;11.20;7.40;;;23.90;48.20;;;;;;221901;1318;22268;-61
2021/12/30 04:50:49;;;;;;;14.60;7.80;;;23.90;48.00;;;;;;221571;1318;22537;-62
2021/12/30 04:55:53;;;;;;;14.70;8.50;;;23.90;48.00;;;;;;221885;1318;23515;-62
2021/12/30 05:00:56;;;;;;;12.30;8.10;;;23.90;48.10;;;;;;221835;1318;22501;-62
2021/12/30 05:06:01;;;;;;;12.70;7.80;;;23.90;48.70;;;;;;221880;1318;22534;-62
2021/12/30 05:11:05;;;;;;;12.30;7.60;;;23.90;48.10;;;;;;221844;1317;22420;-62
2021/12/30 05:16:08;;;;;;;12.00;7.60;;;23.90;48.00;;;;;;221783;1318;22489;-61
2021/12/30 05:21:12;;;;;;;12.10;7.10;;;23.80;48.30;;;;;;221242;1320;22424;-62
2021/12/30 05:26:16;;;;;;;11.60;7.30;;;23.80;48.10;;;;;;221820;1318;22306;-61
2021/12/30 05:31:19;;;;;;;14.30;7.30;;;23.80;48.10;;;;;;221597;1313;22674;-61
2021/12/30 05:36:23;;;;;;;15.80;7.40;;;23.80;48.30;;;;;;221381;1320;22455;-61
2021/12/30 05:41:28;;;;;;;10.70;7.20;;;23.90;48.00;;;;;;221222;1318;22438;-61
2021/12/30 05:46:32;;;;;;;13.20;7.40;;;23.90;48.10;;;;;;221602;1312;22585;-61
2021/12/30 05:51:35;;;;;;;11.70;7.60;;;23.80;48.20;;;;;;221794;1317;23065;-61
2021/12/30 05:56:39;;;;;;;12.50;7.40;;;23.90;48.10;;;;;;221798;1318;22642;-61
2021/12/30 06:01:42;;;;;;;12.00;7.40;;;23.90;48.10;;;;;;221756;1317;22253;-61
2021/12/30 06:06:46;;;;;;;12.80;7.20;;;23.90;48.20;;;;;;221850;1318;22862;-61
2021/12/30 06:11:49;;;;;;;13.00;7.10;;;23.80;48.20;;;;;;221878;1317;22451;-61
2021/12/30 06:16:53;;;;;;;13.10;7.30;;;23.90;48.00;;;;;;221800;1317;22599;-61
2021/12/30 06:21:57;;;;;;;11.30;7.20;;;23.90;48.00;;;;;;221817;1317;22874;-61
2021/12/30 06:27:00;;;;;;;11.60;7.10;;;23.90;48.00;;;;;;221824;1318;22734;-61
2021/12/30 06:32:05;;;;;;;13.80;8.20;;;23.90;47.90;;;;;;221903;1317;22453;-61
2021/12/30 06:37:08;;;;;;;14.90;8.10;;;23.90;47.90;;;;;;221882;1318;22256;-61
2021/12/30 06:42:12;;;;;;;12.90;8.20;;;23.90;48.00;;;;;;221885;1317;22272;-61
2021/12/30 06:47:15;;;;;;;16.50;8.10;;;23.90;48.00;;;;;;221785;1318;22414;-61
2021/12/30 06:52:18;;;;;;;14.00;8.50;;;23.90;47.90;;;;;;221809;1318;22502;-61
2021/12/30 06:57:23;;;;;;;15.10;9.00;;;23.90;48.00;;;;;;221900;1318;23306;-61
2021/12/30 07:02:29;;;;;;;15.20;8.80;;;23.90;48.00;;;;;;221750;1318;23053;-61
2021/12/30 07:07:34;;;;;;;15.30;9.20;;;23.90;47.90;;;;;;221636;1318;22891;-62
2021/12/30 07:12:38;;;;;;;13.60;8.50;;;23.90;47.90;;;;;;221880;1318;23220;-61
2021/12/30 07:17:42;;;;;;;14.90;8.80;;;23.90;47.90;;;;;;221813;1318;23220;-62
2021/12/30 07:22:45;;;;;;;14.40;8.70;;;23.90;48.00;;;;;;221804;1317;22257;-61
2021/12/30 07:27:54;;;;;;;15.40;9.00;;;23.90;48.00;;;;;;221530;1318;22457;-61
2021/12/30 07:32:58;;;;;;;14.80;9.50;;;23.80;47.90;;;;;;221837;1318;22127;-61
2021/12/30 07:38:03;;;;;;;15.50;9.30;;;23.90;48.00;;;;;;221512;1318;23141;-62
2021/12/30 07:43:06;;;;;;;16.40;8.90;;;23.90;48.00;;;;;;221870;1312;22422;-61
2021/12/30 07:48:09;;;;;;;17.70;9.40;;;23.90;48.00;;;;;;221769;1318;22480;-61
2021/12/30 07:53:13;;;;;;;14.10;8.70;;;23.90;48.00;;;;;;221648;1312;22442;-61
2021/12/30 07:58:16;;;;;;;13.10;8.30;;;23.90;47.90;;;;;;221869;1313;22614;-62
2021/12/30 08:03:25;;;;;;;13.90;8.70;;;23.90;47.90;;;;;;221821;1315;22181;-61
2021/12/30 08:08:39;;;;;;;13.10;8.40;;;23.90;47.80;;;;;;221488;1312;22432;-58
2021/12/30 08:13:47;;;;;;;14.60;9.10;;;23.90;48.00;;;;;;221316;1318;22398;-59
2021/12/30 08:18:52;;;;;;;18.40;7.90;;;24.00;48.20;;;;;;221245;1315;22458;-58
2021/12/30 08:23:59;;;;;;;13.10;8.20;;;23.90;48.40;;;;;;221367;1312;22583;-60
2021/12/30 08:29:04;;;;;;;14.70;9.10;;;23.90;48.50;;;;;;221741;1312;23168;-59
2021/12/30 08:34:10;;;;;;;19.60;8.90;;;23.90;48.80;;;;;;220957;1312;22561;-58
2021/12/30 08:39:14;;;;;;;13.60;7.70;;;23.90;48.70;;;;;;221169;1312;22623;-55
2021/12/30 08:44:17;;;;;;;14.50;8.00;;;23.90;48.90;;;;;;221900;1317;22472;-59
2021/12/30 08:49:22;;;;;;;14.70;8.50;;;24.00;48.70;;;;;;221770;1313;22349;-54
2021/12/30 08:54:43;;;;;;;22.00;8.70;;;23.90;49.10;;;;;;221856;1318;22533;-51
2021/12/30 08:59:47;;;;;;;34.00;9.10;;;24.00;49.00;;;;;;221119;1320;22424;-56
2021/12/30 09:04:53;;;;;;;21.40;8.00;;;24.00;49.10;;;;;;219115;1318;3105687;-60
2021/12/30 09:09:57;;;;;;;15.80;8.00;;;23.90;49.10;;;;;;221560;1312;22419;-56
2021/12/30 09:15:03;;;;;;;14.50;7.50;;;23.90;49.00;;;;;;221969;1318;22418;-59
2021/12/30 09:20:08;;;;;;;18.10;7.60;;;23.80;49.00;;;;;;221142;1312;22425;-58
2021/12/30 09:25:17;;;;;;;18.10;7.60;;;23.90;48.90;;;;;;221578;1318;23887;-58
2021/12/30 09:30:21;;;;;;;13.50;7.90;;;23.90;49.20;;;;;;221663;1317;22261;-56
2021/12/30 09:35:25;;;;;;;16.80;6.90;;;23.80;49.00;;;;;;221590;1317;23094;-60
2021/12/30 09:40:29;;;;;;;13.10;6.60;;;23.80;49.00;;;;;;221559;1317;22520;-55
2021/12/30 09:45:37;;;;;;;14.50;7.70;;;23.80;49.10;;;;;;221857;1318;22209;-55
2021/12/30 09:50:50;;;;;;;11.50;6.90;;;23.80;49.10;;;;;;221252;1312;22381;-56
2021/12/30 09:56:02;;;;;;;14.40;6.60;;;23.80;49.20;;;;;;221515;1317;23136;-55
2021/12/30 10:01:15;;;;;;;14.40;7.10;;;23.80;49.10;;;;;;221769;1318;22583;-56
2021/12/30 10:06:44;;;;;;;13.50;6.70;;;23.90;48.90;;;;;;221817;1318;22526;-55
2021/12/30 10:12:00;;;;;;;13.70;6.20;;;23.90;49.00;;;;;;221305;1318;22421;-53
2021/12/30 10:17:33;;;;;;;10.10;6.50;;;23.90;49.10;;;;;;220954;1315;22291;-51
2021/12/30 10:22:50;;;;;;;13.00;7.00;;;23.90;48.90;;;;;;221747;1313;22449;-55
2021/12/30 10:28:15;;;;;;;10.90;6.60;;;23.90;48.80;;;;;;221524;1312;22240;-55
2021/12/30 10:33:26;;;;;;;12.80;6.80;;;23.90;48.80;;;;;;221315;1312;22547;-55
2021/12/30 10:38:34;;;;;;;11.60;6.80;;;23.90;48.80;;;;;;221329;1312;23186;-52
2021/12/30 10:43:47;;;;;;;9.50;5.80;;;23.90;48.80;;;;;;221690;1315;23236;-53
2021/12/30 10:49:00;;;;;;;9.30;5.80;;;23.90;48.80;;;;;;221657;1312;22456;-53
2021/12/30 10:54:18;;;;;;;9.30;6.10;;;23.90;48.90;;;;;;221308;1312;23193;-53
2021/12/30 10:59:43;;;;;;;10.90;5.90;;;23.90;48.80;;;;;;221465;1312;23488;-52
2021/12/30 11:05:02;;;;;;;13.90;6.40;;;23.90;48.80;;;;;;221687;1312;22503;-51
2021/12/30 11:10:06;;;;;;;13.10;6.30;;;24.10;48.60;;;;;;221694;1312;22285;-54
2021/12/30 11:15:23;;;;;;;11.40;5.80;;;24.10;50.60;;;;;;221242;1312;22557;-60
2021/12/30 11:20:27;;;;;;;11.60;5.60;;;24.10;49.50;;;;;;221134;1315;22458;-57
2021/12/30 11:25:31;;;;;;;11.30;5.90;;;24.00;49.90;;;;;;221824;1318;22446;-61
2021/12/30 11:30:44;;;;;;;14.60;6.40;;;23.80;49.90;;;;;;221813;1317;22392;-58
2021/12/30 11:35:47;;;;;;;11.10;6.10;;;23.70;50.00;;;;;;221219;1311;23291;-55
2021/12/30 11:40:51;;;;;;;9.40;5.60;;;23.70;50.60;;;;;;221607;1312;22569;-57
2021/12/30 11:45:54;;;;;;;11.10;6.20;;;23.60;50.40;;;;;;221881;1312;22421;-57
2021/12/30 11:51:04;;;;;;;12.80;6.40;;;23.40;50.20;;;;;;221761;1316;22384;-57
2021/12/30 11:56:24;;;;;;;11.50;6.30;;;23.30;49.40;;;;;;221830;1318;23045;-58
2021/12/30 12:01:32;;;;;;;11.10;5.90;;;23.30;49.60;;;;;;221721;1317;22502;-52
2021/12/30 12:06:44;;;;;;;10.50;5.30;;;23.20;49.90;;;;;;221939;1312;22468;-55
2021/12/30 12:11:54;;;;;;;10.00;6.00;;;23.30;50.20;;;;;;221438;1318;22475;-56
2021/12/30 12:17:08;;;;;;;10.00;5.60;;;23.20;50.50;;;;;;221465;1318;22288;-56
2021/12/30 12:22:17;;;;;;;10.40;5.70;;;23.20;50.80;;;;;;221440;1319;22394;-52
2021/12/30 12:27:22;;;;;;;10.30;5.60;;;23.20;50.70;;;;;;221364;1318;23277;-55
2021/12/30 12:32:35;;;;;;;7.90;5.30;;;23.20;50.80;;;;;;221460;1318;22545;-56
2021/12/30 12:37:59;;;;;;;13.60;5.20;;;23.20;50.80;;;;;;221430;1318;22314;-53
2021/12/30 12:43:14;;;;;;;18.90;5.70;;;23.10;51.30;;;;;;221714;1315;22465;-52
2021/12/30 12:48:23;;;;;;;9.50;5.20;;;23.10;51.50;;;;;;221575;1316;22526;-51
2021/12/30 12:53:32;;;;;;;12.70;5.70;;;23.10;51.40;;;;;;221657;1312;22274;-56
2021/12/30 12:58:50;;;;;;;21.20;6.30;;;23.00;51.80;;;;;;221503;1312;22510;-60
2021/12/30 13:04:00;;;;;;;9.30;5.60;;;22.90;51.70;;;;;;221808;1317;22308;-53
2021/12/30 13:09:07;;;;;;;;;;;22.90;52.00;;;;;;221830;1314;22493;-57
2021/12/30 13:14:16;;;;;;;15.30;5.70;;;22.80;51.80;;;;;;221790;1315;22512;-55
2021/12/30 13:19:24;;;;;;;11.70;5.20;;;22.80;52.00;;;;;;221700;1316;22959;-58
2021/12/30 13:24:32;;;;;;;11.80;5.20;;;22.80;51.90;;;;;;221720;1315;23129;-55
2021/12/30 13:29:49;;;;;;;13.20;5.30;;;22.80;51.90;;;;;;221234;1318;23387;-60
2021/12/30 13:35:18;;;;;;;9.60;5.10;;;22.70;52.00;;;;;;221074;1319;23766;-59
2021/12/30 13:40:23;;;;;;;9.60;5.30;;;22.70;52.00;;;;;;221212;1317;22440;-59
2021/12/30 13:45:30;;;;;;;9.20;5.00;;;22.70;52.00;;;;;;221640;1316;22434;-59
2021/12/30 13:51:08;;;;;;;15.50;5.20;;;22.70;52.30;;;;;;221781;1318;22325;-56
2021/12/30 13:56:23;;;;;;;11.70;5.40;;;22.70;52.80;;;;;;221687;1317;22197;-54
2021/12/30 14:01:32;;;;;;;11.00;4.90;;;22.60;53.90;;;;;;221693;1316;22557;-57
2021/12/30 14:06:48;;;;;;;9.50;4.80;;;22.60;54.60;;;;;;221154;1312;22457;-54
2021/12/30 14:12:02;;;;;;;11.40;5.30;;;22.70;54.50;;;;;;221035;1320;23553;-55
2021/12/30 14:17:06;;;;;;;9.30;4.80;;;22.90;54.90;;;;;;221064;1318;23095;-55
2021/12/30 14:22:15;;;;;;;9.70;4.40;;;23.10;55.30;;;;;;220871;1316;22457;-53
2021/12/30 14:27:26;;;;;;;9.40;4.70;;;23.30;55.00;;;;;;221675;1315;22495;-54
2021/12/30 14:32:32;;;;;;;8.70;4.80;;;23.40;55.50;;;;;;221593;1315;23001;-56
2021/12/30 14:37:44;;;;;;;18.00;5.60;;;23.50;55.30;;;;;;221435;1318;22492;-56
2021/12/30 14:43:04;;;;;;;7.60;4.50;;;23.50;55.40;;;;;;221300;1316;22571;-59
2021/12/30 14:48:10;;;;;;;9.50;4.60;;;23.60;56.40;;;;;;221602;1315;23064;-57
2021/12/30 14:53:37;;;;;;;9.90;4.50;;;23.50;56.70;;;;;;221332;1318;22546;-56
2021/12/30 14:58:40;;;;;;;7.90;4.50;;;23.60;56.60;;;;;;221709;1315;22537;-55
2021/12/30 15:03:43;;;;;;;7.20;4.60;;;23.50;56.70;;;;;;221709;1317;22606;-52
2021/12/30 15:08:53;;;;;;;8.80;4.70;;;23.60;57.00;;;;;;221576;1315;22511;-55
2021/12/30 15:13:57;;;;;;;7.90;4.90;;;23.60;57.20;;;;;;221519;1312;22442;-52
2021/12/30 15:19:01;;;;;;;9.00;4.30;;;23.60;58.80;;;;;;221535;1315;22958;-55
2021/12/30 15:24:04;;;;;;;9.10;5.30;;;23.70;60.20;;;;;;221582;1312;22613;-51
2021/12/30 15:29:08;;;;;;;17.30;6.30;;;23.70;59.50;;;;;;221673;1315;22451;-55
2021/12/30 15:34:12;;;;;;;10.80;5.60;;;23.80;60.20;;;;;;221375;1313;22492;-54
2021/12/30 15:39:15;;;;;;;13.10;7.20;;;23.90;61.30;;;;;;221666;1312;22432;-52
2021/12/30 15:44:19;;;;;;;16.80;7.10;;;23.90;58.60;;;;;;221407;1310;23163;-54
2021/12/30 15:49:47;;;;;;;12.80;7.20;;;24.00;56.90;;;;;;221590;1311;22475;-53
2021/12/30 15:55:12;;;;;;;20.90;7.80;;;23.90;55.80;;;;;;221556;1312;22485;-56
2021/12/30 16:00:19;;;;;;;16.00;6.40;;;23.90;55.80;;;;;;221345;1315;22600;-53
2021/12/30 16:05:30;;;;;;;17.20;7.50;;;23.80;55.60;;;;;;221274;1312;23132;-56
2021/12/30 16:10:37;;;;;;;16.00;6.30;;;23.80;55.50;;;;;;221416;1319;22409;-57
2021/12/30 16:15:43;;;;;;;12.00;6.40;;;23.70;55.90;;;;;;221542;1317;22594;-57
2021/12/30 16:20:48;;;;;;;12.80;6.10;;;23.70;55.70;;;;;;221505;1312;22631;-53
2021/12/30 16:25:51;;;;;;;12.60;6.30;;;23.60;55.80;;;;;;221446;1312;23687;-56
2021/12/30 16:30:58;;;;;;;12.60;5.80;;;23.50;56.20;;;;;;221533;1315;23821;-56
2021/12/30 16:36:02;;;;;;;16.10;5.80;;;23.50;56.30;;;;;;221656;1318;22440;-55
2021/12/30 16:41:05;;;;;;;20.30;5.80;;;23.50;56.30;;;;;;221149;1312;22672;-56
2021/12/30 16:46:14;;;;;;;17.60;6.00;;;23.30;56.30;;;;;;221224;1318;24108;-55
2021/12/30 16:51:25;;;;;;;9.30;5.30;;;23.40;56.90;;;;;;221597;1317;22441;-57
2021/12/30 16:56:30;;;;;;;11.80;5.60;;;23.30;56.60;;;;;;221437;1313;22488;-55
2021/12/30 17:01:36;;;;;;;13.80;5.70;;;23.30;56.70;;;;;;221650;1314;22455;-55
2021/12/30 17:07:06;;;;;;;13.50;5.60;;;23.30;56.70;;;;;;221177;1312;106347;-53
2021/12/30 17:12:16;;;;;;;9.90;5.50;;;23.30;56.70;;;;;;221585;1312;23268;-56
2021/12/30 17:17:26;;;;;;;16.10;5.50;;;23.20;57.10;;;;;;221600;1313;23133;-56
2021/12/30 17:22:36;;;;;;;10.80;5.80;;;23.20;57.20;;;;;;221566;1309;23677;-54
2021/12/30 17:27:43;;;;;;;9.80;5.60;;;23.10;56.80;;;;;;221445;1312;22439;-56
2021/12/30 17:32:59;;;;;;;13.70;5.60;;;23.10;56.70;;;;;;221465;1312;23259;-55
2021/12/30 17:40:08;;;;;;;11.90;5.60;;;23.10;56.40;;;;;;206618;1346;544829;-55
2021/12/30 17:45:42;;;;;;;9.30;5.60;;;23.10;56.30;;;;;;209293;1324;22760;-54
2021/12/30 17:51:14;;;;;;;10.20;5.90;;;23.00;56.30;;;;;;207492;1325;3160073;-53
2021/12/30 17:56:48;;;;;;;9.40;4.60;;;22.90;56.50;;;;;;210044;1324;24277;-54
2021/12/30 18:02:14;;;;;;;7.50;4.50;;;22.90;56.50;;;;;;210023;1324;25496;-55
2021/12/30 18:07:18;;;;;;;8.60;4.40;;;22.80;56.60;;;;;;210035;1313;24301;-53
2021/12/30 18:12:35;;;;;;;8.10;4.70;;;22.80;56.50;;;;;;209849;1323;25413;-55
2021/12/30 18:17:45;;;;;;;8.70;4.60;;;22.80;56.20;;;;;;210064;1323;24255;-55
2021/12/30 18:23:15;;;;;;;7.10;4.40;;;22.70;56.50;;;;;;215872;1322;23510;-56
2021/12/30 18:28:51;;;;;;;6.00;4.10;;;22.70;56.20;;;;;;215806;1326;23971;-54
2021/12/30 18:34:11;;;;;;;14.30;4.50;;;22.70;56.40;;;;;;215937;1334;22534;-54
2021/12/30 18:39:29;;;;;;;7.10;4.20;;;22.70;55.90;;;;;;215891;1322;22513;-55
2021/12/30 18:44:47;;;;;;;9.10;4.20;;;22.70;56.10;;;;;;215238;1320;24419;-55
2021/12/30 18:50:05;;;;;;;5.80;3.90;;;22.70;56.40;;;;;;209403;1324;22597;-57
2021/12/30 18:55:27;;;;;;;7.30;4.10;;;22.70;56.00;;;;;;215849;1325;22639;-56
2021/12/30 19:01:03;;;;;;;5.90;3.70;;;22.70;55.90;;;;;;212620;1324;24236;-53
2021/12/30 19:06:23;;;;;;;6.40;3.80;;;22.70;56.20;;;;;;210364;1320;22587;-52
2021/12/30 19:11:57;;;;;;;11.30;3.60;;;22.70;56.30;;;;;;210717;1321;22748;-57
2021/12/30 19:17:13;;;;;;;9.70;4.10;;;22.60;56.30;;;;;;210415;1319;26550;-55
2021/12/30 19:22:30;;;;;;;9.20;6.20;;;22.60;56.50;;;;;;210186;1320;22593;-54
2021/12/30 19:27:41;;;;;;;9.20;4.90;;;22.80;56.10;;;;;;209960;1321;22676;-54
2021/12/30 19:33:05;;;;;;;12.10;4.30;;;23.00;54.50;;;;;;210225;1310;23326;-56
2021/12/30 19:38:45;;;;;;;7.30;4.20;;;23.20;53.70;;;;;;210325;1321;25426;-54
2021/12/30 19:44:32;;;;;;;10.50;4.00;;;23.50;52.70;;;;;;210422;1310;26425;-56
2021/12/30 19:49:57;;;;;;;12.20;4.30;;;23.90;52.30;;;;;;210235;1320;26484;-55
2021/12/30 19:55:33;;;;;;;6.80;3.40;;;23.90;52.40;;;;;;209677;1321;24419;-56
2021/12/30 20:00:49;;;;;;;7.80;3.40;;;23.90;52.50;;;;;;210612;1320;22583;-55
2021/12/30 20:06:02;;;;;;;6.00;3.10;;;24.00;52.70;;;;;;210387;1321;27116;-56
2021/12/30 20:11:21;;;;;;;5.60;3.30;;;23.90;52.40;;;;;;210536;1314;24516;-54
2021/12/30 20:16:43;;;;;;;5.50;3.40;;;23.90;52.90;;;;;;210238;1321;24450;-54
2021/12/30 20:22:12;;;;;;;6.30;3.30;;;23.80;53.10;;;;;;210910;1319;22714;-55
2021/12/30 20:27:58;;;;;;;6.90;3.00;;;23.70;53.40;;;;;;210857;1320;24386;-55
2021/12/30 20:33:22;;;;;;;13.60;3.10;;;23.60;54.40;;;;;;211125;1320;24296;-56
2021/12/30 20:38:34;;;;;;;9.10;3.30;;;23.50;56.40;;;;;;210584;1320;22624;-54
2021/12/30 20:43:46;;;;;;;21.70;3.70;;;23.50;56.10;;;;;;210684;1320;22623;-54
2021/12/30 20:48:55;;;;;;;11.30;3.60;;;23.40;57.60;;;;;;212372;1320;22609;-52
2021/12/30 20:54:07;;;;;;;8.30;3.20;;;23.50;58.10;;;;;;210317;1320;22765;-52
2021/12/30 20:59:12;;;;;;;13.40;3.70;;;23.50;58.00;;;;;;210405;1321;22596;-54
2021/12/30 21:04:20;;;;;;;18.20;3.50;;;23.40;58.10;;;;;;210702;1321;22590;-54
2021/12/30 21:09:26;;;;;;;14.50;3.70;;;23.30;57.40;;;;;;216275;1313;22525;-55
2021/12/30 21:14:32;;;;;;;14.40;3.70;;;23.30;57.40;;;;;;212637;1320;24259;-58
2021/12/30 21:19:36;;;;;;;11.90;3.80;;;23.20;57.50;;;;;;210222;1319;22596;-57
2021/12/30 21:24:49;;;;;;;11.00;4.30;;;23.20;57.30;;;;;;210363;1320;25332;-55
2021/12/30 21:30:01;;;;;;;13.90;4.30;;;23.20;57.40;;;;;;210688;1320;23156;-57
2021/12/30 21:35:18;;;;;;;9.80;3.90;;;23.20;57.60;;;;;;210441;1320;22660;-56
2021/12/30 21:40:46;;;;;;;12.30;4.60;;;23.20;57.90;;;;;;210361;1321;22985;-55
2021/12/30 21:45:52;;;;;;;9.90;4.10;;;23.10;58.00;;;;;;210786;1320;22594;-55
2021/12/30 21:50:57;;;;;;;10.80;3.90;;;23.10;58.00;;;;;;210164;1321;25272;-56
2021/12/30 21:56:12;;;;;;;11.80;4.00;;;23.10;58.20;;;;;;210369;1320;25740;-56
2021/12/30 22:01:24;;;;;;;11.10;3.90;;;23.10;58.50;;;;;;211071;1320;22606;-57
2021/12/30 22:06:33;;;;;;;10.40;4.00;;;23.10;58.60;;;;;;210704;1320;23037;-56
2021/12/30 22:11:40;;;;;;;10.90;3.70;;;23.10;58.70;;;;;;210671;1320;25464;-56
2021/12/30 22:16:46;;;;;;;8.50;3.40;;;23.10;58.90;;;;;;210797;1320;23916;-56
2021/12/30 22:21:50;;;;;;;9.80;4.30;;;23.00;58.90;;;;;;210631;1318;26297;-57
2021/12/30 22:26:57;;;;;;;10.90;4.50;;;23.10;60.60;;;;;;210581;1321;24355;-56
2021/12/30 22:32:01;;;;;;;8.10;3.40;;;23.10;62.00;;;;;;210593;1319;22600;-53
2021/12/30 22:37:08;;;;;;;9.80;3.50;;;23.10;62.20;;;;;;210693;1321;22765;-57
2021/12/30 22:42:17;;;;;;;8.10;3.70;;;23.10;62.00;;;;;;210549;1319;22694;-57
2021/12/30 22:47:20;;;;;;;7.30;3.70;;;23.10;62.00;;;;;;210808;1320;24225;-56
2021/12/30 22:52:34;;;;;;;7.10;3.20;;;23.10;61.90;;;;;;210601;1320;22567;-56
2021/12/30 22:57:48;;;;;;;7.50;3.20;;;23.10;61.90;;;;;;210491;1320;22661;-55
2021/12/30 23:02:55;;;;;;;7.00;3.20;;;23.10;61.70;;;;;;210233;1321;22691;-56
2021/12/30 23:07:59;;;;;;;6.60;2.60;;;23.10;61.40;;;;;;210705;1321;22603;-57
2021/12/30 23:13:13;;;;;;;7.20;3.10;;;23.00;61.30;;;;;;209859;1322;25431;-56
2021/12/30 23:18:27;;;;;;;5.20;2.80;;;23.10;61.50;;;;;;211033;1320;22600;-56
2021/12/30 23:23:31;;;;;;;4.60;2.60;;;23.00;60.90;;;;;;209747;1319;25135;-56
2021/12/30 23:28:39;;;;;;;5.30;2.80;;;23.00;61.10;;;;;;210485;1320;22848;-54
2021/12/30 23:33:45;;;;;;;5.20;2.60;;;23.00;61.30;;;;;;210584;1320;24219;-58
2021/12/30 23:38:50;;;;;;;6.80;2.20;;;22.90;61.60;;;;;;210839;1320;22593;-57
2021/12/30 23:43:57;;;;;;;32.10;2.70;;;22.90;61.80;;;;;;210634;1319;22639;-56
2021/12/30 23:49:01;;;;;;;5.50;2.20;;;22.90;61.70;;;;;;210813;1320;23030;-53
2021/12/30 23:54:05;;;;;;;5.30;2.60;;;22.90;61.70;;;;;;210609;1321;24300;-58
2021/12/30 23:59:08;;;;;;;8.30;2.50;;;22.80;61.40;;;;;;210785;1318;22605;-58
